This is the latest recevied weather packets stored in our database for station/object K1AWR. If no packets are shown the sender has not sent any weather packets the latest 1 day(s).
| Time | Temp. | Humidity | Pressure | Rain* | Wind** | Luminosity | Snow |
|---|---|---|---|---|---|---|---|
| 1777993525 | 21.67° C | 55% | 1010.5 hPa | 0 mm | 1.34 m/s, 157° | 474 W/m² | - |
| 1777993221 | 21.67° C | 57% | 1010.7 hPa | 0 mm | 0.45 m/s, 161° | 214 W/m² | - |
| 1777992917 | 21.11° C | 59% | 1010.5 hPa | 0 mm | 0.89 m/s, 153° | 99 W/m² | - |
| 1777992616 | 21.11° C | 56% | 1010.5 hPa | 0 mm | 0.89 m/s, 163° | 241 W/m² | - |
| 1777992313 | 20.56° C | 58% | 1010.6 hPa | 0 mm | 0.45 m/s, 162° | 114 W/m² | - |
| 1777992010 | 20° C | 61% | 1010.6 hPa | 0 mm | 1.34 m/s, 171° | 189 W/m² | - |
| 1777991708 | 19.44° C | 62% | 1010.6 hPa | 0 mm | 0.45 m/s, 222° | 249 W/m² | - |
| 1777991405 | 18.89° C | 62% | 1010.6 hPa | 0 mm | 0.89 m/s, 196° | 130 W/m² | - |
| 1777991102 | 18.89° C | 63% | 1010.7 hPa | 0 mm | 0 m/s | 143 W/m² | - |
| 1777990799 | 17.78° C | 65% | 1010.4 hPa | 0 mm | 0.45 m/s, 211° | 189 W/m² | - |
| 1777990496 | 17.78° C | 65% | 1010.5 hPa | 0 mm | 0 m/s | 167 W/m² | - |
| 1777990193 | 17.78° C | 65% | 1010.7 hPa | 0 mm | 0.45 m/s, 174° | 163 W/m² | - |
| 1777989890 | 17.78° C | 64% | 1010.5 hPa | 0 mm | 0.89 m/s, 170° | 190 W/m² | - |
| 1777989586 | 17.22° C | 67% | 1010.4 hPa | 0 mm | 0.89 m/s, 158° | 174 W/m² | - |
| 1777989283 | 16.67° C | 69% | 1010.1 hPa | 0 mm | 0.45 m/s, 179° | 155 W/m² | - |
| 1777988979 | 16.67° C | 69% | 1010.1 hPa | 0 mm | 0.45 m/s, 179° | 155 W/m² | - |
| 1777988676 | 16.67° C | 67% | 1010.2 hPa | 0 mm | 0 m/s | 135 W/m² | - |
| 1777988372 | 16.67° C | 70% | 1010.4 hPa | 0 mm | 0 m/s | 125 W/m² | - |
| 1777988070 | 16.67° C | 69% | 1010.2 hPa | 0 mm | 0.89 m/s, 161° | 121 W/m² | - |
| 1777987765 | 16.11° C | 71% | 1010.4 hPa | 0 mm | 0.45 m/s, 315° | 245 W/m² | - |
| 1777987462 | 15.56° C | 73% | 1010.7 hPa | 0 mm | 0.89 m/s, 173° | 110 W/m² | - |
| 1777987160 | 15.56° C | 73% | 1010.7 hPa | 0 mm | 0.89 m/s, 173° | 110 W/m² | - |
| 1777986857 | 15.56° C | 73% | 1010.6 hPa | 0 mm | 0.89 m/s, 208° | 85 W/m² | - |
| 1777986555 | 16.11° C | 71% | 1010.3 hPa | 0 mm | 0.89 m/s, 81° | 53 W/m² | - |
| 1777986252 | 16.67° C | 70% | 1011 hPa | 0 mm | 0 m/s | 131 W/m² | - |
* Rain latest hour (hover to see other rain measurements)
** Current wind speed in m/s (hover to see current wind gust speed)